sensor_id;sensor_type;location;lat;lon;timestamp;P1;durP1;ratioP1;P2;durP2;ratioP2
71648;SDS011;59492;45.638;11.714;2022-10-16T00:01:17;24.00;;;21.10;;
71648;SDS011;59492;45.638;11.714;2022-10-16T00:03:44;25.20;;;20.60;;
71648;SDS011;59492;45.638;11.714;2022-10-16T00:06:11;25.40;;;20.70;;
71648;SDS011;59492;45.638;11.714;2022-10-16T00:08:37;23.90;;;20.80;;
71648;SDS011;59492;45.638;11.714;2022-10-16T00:11:05;22.90;;;20.00;;
71648;SDS011;59492;45.638;11.714;2022-10-16T00:13:33;23.50;;;20.70;;
71648;SDS011;59492;45.638;11.714;2022-10-16T00:16:01;25.50;;;21.50;;
71648;SDS011;59492;45.638;11.714;2022-10-16T00:18:27;24.20;;;20.50;;
71648;SDS011;59492;45.638;11.714;2022-10-16T00:20:54;23.50;;;20.40;;
71648;SDS011;59492;45.638;11.714;2022-10-16T00:23:20;24.50;;;20.40;;
71648;SDS011;59492;45.638;11.714;2022-10-16T00:25:54;25.80;;;21.80;;
71648;SDS011;59492;45.638;11.714;2022-10-16T00:28:24;28.10;;;22.70;;
71648;SDS011;59492;45.638;11.714;2022-10-16T00:30:49;28.40;;;23.80;;
71648;SDS011;59492;45.638;11.714;2022-10-16T00:33:15;30.00;;;23.40;;
71648;SDS011;59492;45.638;11.714;2022-10-16T00:35:40;25.30;;;20.40;;
71648;SDS011;59492;45.638;11.714;2022-10-16T00:38:06;27.00;;;22.60;;
71648;SDS011;59492;45.638;11.714;2022-10-16T00:40:31;27.00;;;22.10;;
71648;SDS011;59492;45.638;11.714;2022-10-16T00:42:57;25.90;;;23.00;;
71648;SDS011;59492;45.638;11.714;2022-10-16T00:45:23;27.90;;;23.10;;
71648;SDS011;59492;45.638;11.714;2022-10-16T00:47:49;26.00;;;21.90;;
71648;SDS011;59492;45.638;11.714;2022-10-16T00:50:27;26.30;;;22.50;;
71648;SDS011;59492;45.638;11.714;2022-10-16T00:52:55;26.80;;;22.00;;
71648;SDS011;59492;45.638;11.714;2022-10-16T00:55:22;27.00;;;22.40;;
71648;SDS011;59492;45.638;11.714;2022-10-16T00:57:49;28.00;;;22.70;;
71648;SDS011;59492;45.638;11.714;2022-10-16T01:00:20;23.80;;;21.20;;
71648;SDS011;59492;45.638;11.714;2022-10-16T01:02:52;26.40;;;20.80;;
71648;SDS011;59492;45.638;11.714;2022-10-16T01:05:20;23.80;;;21.10;;
71648;SDS011;59492;45.638;11.714;2022-10-16T01:10:52;23.30;;;20.80;;
71648;SDS011;59492;45.638;11.714;2022-10-16T01:13:28;26.70;;;21.90;;
71648;SDS011;59492;45.638;11.714;2022-10-16T01:16:05;26.60;;;21.00;;
71648;SDS011;59492;45.638;11.714;2022-10-16T01:18:52;24.10;;;21.60;;
71648;SDS011;59492;45.638;11.714;2022-10-16T01:21:23;25.90;;;22.60;;
71648;SDS011;59492;45.638;11.714;2022-10-16T01:29:21;24.00;;;20.50;;
71648;SDS011;59492;45.638;11.714;2022-10-16T01:31:56;25.30;;;21.30;;
71648;SDS011;59492;45.638;11.714;2022-10-16T01:34:42;26.80;;;22.20;;
71648;SDS011;59492;45.638;11.714;2022-10-16T01:37:21;22.60;;;19.50;;
71648;SDS011;59492;45.638;11.714;2022-10-16T01:39:55;23.60;;;20.20;;
71648;SDS011;59492;45.638;11.714;2022-10-16T01:42:25;23.70;;;20.20;;
71648;SDS011;59492;45.638;11.714;2022-10-16T01:44:56;26.00;;;21.50;;
71648;SDS011;59492;45.638;11.714;2022-10-16T01:47:23;25.30;;;20.40;;
71648;SDS011;59492;45.638;11.714;2022-10-16T01:49:51;23.30;;;20.30;;
71648;SDS011;59492;45.638;11.714;2022-10-16T01:52:19;24.90;;;21.90;;
71648;SDS011;59492;45.638;11.714;2022-10-16T01:54:50;21.80;;;19.50;;
71648;SDS011;59492;45.638;11.714;2022-10-16T01:57:17;25.30;;;21.80;;
71648;SDS011;59492;45.638;11.714;2022-10-16T01:59:47;25.60;;;22.20;;
71648;SDS011;59492;45.638;11.714;2022-10-16T02:02:17;23.30;;;20.80;;
71648;SDS011;59492;45.638;11.714;2022-10-16T02:04:46;27.10;;;20.70;;
71648;SDS011;59492;45.638;11.714;2022-10-16T02:07:16;33.20;;;25.90;;
71648;SDS011;59492;45.638;11.714;2022-10-16T02:09:42;26.00;;;22.30;;
71648;SDS011;59492;45.638;11.714;2022-10-16T02:12:42;28.20;;;23.50;;
71648;SDS011;59492;45.638;11.714;2022-10-16T02:17:27;23.50;;;20.80;;
71648;SDS011;59492;45.638;11.714;2022-10-16T02:19:53;27.50;;;21.50;;
71648;SDS011;59492;45.638;11.714;2022-10-16T02:22:26;26.20;;;22.40;;
71648;SDS011;59492;45.638;11.714;2022-10-16T02:24:58;25.90;;;21.40;;
71648;SDS011;59492;45.638;11.714;2022-10-16T02:30:38;27.40;;;21.50;;
71648;SDS011;59492;45.638;11.714;2022-10-16T02:33:08;26.70;;;22.50;;
71648;SDS011;59492;45.638;11.714;2022-10-16T02:35:35;25.60;;;22.30;;
71648;SDS011;59492;45.638;11.714;2022-10-16T02:38:02;25.20;;;22.40;;
71648;SDS011;59492;45.638;11.714;2022-10-16T02:40:29;25.30;;;22.30;;
71648;SDS011;59492;45.638;11.714;2022-10-16T02:42:55;27.90;;;22.60;;
71648;SDS011;59492;45.638;11.714;2022-10-16T02:45:21;25.80;;;21.60;;
71648;SDS011;59492;45.638;11.714;2022-10-16T02:47:48;24.90;;;21.40;;
71648;SDS011;59492;45.638;11.714;2022-10-16T02:50:14;26.10;;;22.50;;
71648;SDS011;59492;45.638;11.714;2022-10-16T02:52:40;26.80;;;21.80;;
71648;SDS011;59492;45.638;11.714;2022-10-16T02:55:06;26.20;;;22.90;;
71648;SDS011;59492;45.638;11.714;2022-10-16T02:57:31;26.50;;;21.70;;
71648;SDS011;59492;45.638;11.714;2022-10-16T02:59:57;27.50;;;21.70;;
71648;SDS011;59492;45.638;11.714;2022-10-16T03:02:23;25.60;;;21.70;;
71648;SDS011;59492;45.638;11.714;2022-10-16T03:04:49;28.50;;;23.20;;
71648;SDS011;59492;45.638;11.714;2022-10-16T03:07:14;27.50;;;22.50;;
71648;SDS011;59492;45.638;11.714;2022-10-16T03:09:40;28.30;;;23.40;;
71648;SDS011;59492;45.638;11.714;2022-10-16T03:12:06;26.30;;;22.30;;
71648;SDS011;59492;45.638;11.714;2022-10-16T03:14:31;23.80;;;20.70;;
71648;SDS011;59492;45.638;11.714;2022-10-16T03:16:57;22.70;;;19.30;;
71648;SDS011;59492;45.638;11.714;2022-10-16T03:19:22;21.60;;;19.10;;
71648;SDS011;59492;45.638;11.714;2022-10-16T03:21:49;24.50;;;21.60;;
71648;SDS011;59492;45.638;11.714;2022-10-16T03:24:15;24.30;;;21.60;;
71648;SDS011;59492;45.638;11.714;2022-10-16T03:26:40;24.10;;;20.30;;
71648;SDS011;59492;45.638;11.714;2022-10-16T03:29:06;24.30;;;21.60;;
71648;SDS011;59492;45.638;11.714;2022-10-16T03:31:32;25.20;;;21.60;;
71648;SDS011;59492;45.638;11.714;2022-10-16T03:33:58;25.40;;;21.30;;
71648;SDS011;59492;45.638;11.714;2022-10-16T03:36:23;23.90;;;20.80;;
71648;SDS011;59492;45.638;11.714;2022-10-16T03:38:49;26.20;;;22.30;;
71648;SDS011;59492;45.638;11.714;2022-10-16T03:41:15;25.20;;;22.00;;
71648;SDS011;59492;45.638;11.714;2022-10-16T03:43:40;26.40;;;22.90;;
71648;SDS011;59492;45.638;11.714;2022-10-16T03:46:06;25.60;;;22.70;;
71648;SDS011;59492;45.638;11.714;2022-10-16T03:48:31;28.10;;;22.60;;
71648;SDS011;59492;45.638;11.714;2022-10-16T03:50:57;24.80;;;21.30;;
71648;SDS011;59492;45.638;11.714;2022-10-16T03:53:23;27.60;;;22.80;;
71648;SDS011;59492;45.638;11.714;2022-10-16T03:55:49;24.40;;;21.00;;
71648;SDS011;59492;45.638;11.714;2022-10-16T03:58:15;24.20;;;21.20;;
71648;SDS011;59492;45.638;11.714;2022-10-16T04:00:42;27.10;;;22.50;;
71648;SDS011;59492;45.638;11.714;2022-10-16T04:03:08;21.80;;;19.00;;
71648;SDS011;59492;45.638;11.714;2022-10-16T04:05:34;23.10;;;20.30;;
71648;SDS011;59492;45.638;11.714;2022-10-16T04:07:59;23.30;;;20.20;;
71648;SDS011;59492;45.638;11.714;2022-10-16T04:10:25;24.60;;;20.90;;
71648;SDS011;59492;45.638;11.714;2022-10-16T04:12:51;23.60;;;21.10;;
71648;SDS011;59492;45.638;11.714;2022-10-16T04:15:16;25.80;;;22.50;;
71648;SDS011;59492;45.638;11.714;2022-10-16T04:17:42;26.30;;;22.70;;
71648;SDS011;59492;45.638;11.714;2022-10-16T04:20:07;26.00;;;22.80;;
71648;SDS011;59492;45.638;11.714;2022-10-16T04:22:33;29.70;;;23.10;;
71648;SDS011;59492;45.638;11.714;2022-10-16T04:24:59;27.90;;;22.60;;
71648;SDS011;59492;45.638;11.714;2022-10-16T04:27:24;29.10;;;23.30;;
71648;SDS011;59492;45.638;11.714;2022-10-16T04:29:50;28.90;;;22.80;;
71648;SDS011;59492;45.638;11.714;2022-10-16T04:32:15;26.40;;;23.30;;
71648;SDS011;59492;45.638;11.714;2022-10-16T04:34:41;26.50;;;22.30;;
71648;SDS011;59492;45.638;11.714;2022-10-16T04:37:06;25.90;;;21.70;;
71648;SDS011;59492;45.638;11.714;2022-10-16T04:39:32;28.60;;;23.20;;
71648;SDS011;59492;45.638;11.714;2022-10-16T04:41:57;28.20;;;22.50;;
71648;SDS011;59492;45.638;11.714;2022-10-16T04:44:23;29.40;;;22.30;;
71648;SDS011;59492;45.638;11.714;2022-10-16T04:46:52;25.20;;;21.60;;
71648;SDS011;59492;45.638;11.714;2022-10-16T04:49:17;27.00;;;23.50;;
71648;SDS011;59492;45.638;11.714;2022-10-16T04:51:43;25.80;;;22.60;;
71648;SDS011;59492;45.638;11.714;2022-10-16T04:54:09;23.80;;;20.40;;
71648;SDS011;59492;45.638;11.714;2022-10-16T04:56:35;24.80;;;19.70;;
71648;SDS011;59492;45.638;11.714;2022-10-16T04:59:08;23.10;;;20.40;;
71648;SDS011;59492;45.638;11.714;2022-10-16T05:01:34;26.40;;;21.20;;
71648;SDS011;59492;45.638;11.714;2022-10-16T05:04:00;26.60;;;22.10;;
71648;SDS011;59492;45.638;11.714;2022-10-16T05:06:26;25.20;;;21.00;;
71648;SDS011;59492;45.638;11.714;2022-10-16T05:08:51;25.90;;;21.40;;
71648;SDS011;59492;45.638;11.714;2022-10-16T05:11:17;27.20;;;21.90;;
71648;SDS011;59492;45.638;11.714;2022-10-16T05:13:42;26.60;;;22.20;;
71648;SDS011;59492;45.638;11.714;2022-10-16T05:16:08;24.20;;;21.30;;
71648;SDS011;59492;45.638;11.714;2022-10-16T05:18:34;26.00;;;21.20;;
71648;SDS011;59492;45.638;11.714;2022-10-16T05:20:59;25.10;;;21.70;;
71648;SDS011;59492;45.638;11.714;2022-10-16T05:23:25;25.10;;;21.90;;
71648;SDS011;59492;45.638;11.714;2022-10-16T05:25:54;24.80;;;21.20;;
71648;SDS011;59492;45.638;11.714;2022-10-16T05:28:23;25.50;;;21.80;;
71648;SDS011;59492;45.638;11.714;2022-10-16T05:30:49;24.40;;;21.40;;
71648;SDS011;59492;45.638;11.714;2022-10-16T05:33:15;24.90;;;21.40;;
71648;SDS011;59492;45.638;11.714;2022-10-16T05:35:40;24.30;;;21.20;;
71648;SDS011;59492;45.638;11.714;2022-10-16T05:38:06;23.70;;;20.30;;
71648;SDS011;59492;45.638;11.714;2022-10-16T05:40:31;24.20;;;21.10;;
71648;SDS011;59492;45.638;11.714;2022-10-16T05:42:57;24.80;;;21.50;;
71648;SDS011;59492;45.638;11.714;2022-10-16T05:45:22;23.40;;;19.60;;
71648;SDS011;59492;45.638;11.714;2022-10-16T05:47:48;21.00;;;18.20;;
71648;SDS011;59492;45.638;11.714;2022-10-16T05:50:13;22.60;;;18.90;;
71648;SDS011;59492;45.638;11.714;2022-10-16T05:52:39;23.00;;;19.40;;
71648;SDS011;59492;45.638;11.714;2022-10-16T05:55:05;23.00;;;19.60;;
71648;SDS011;59492;45.638;11.714;2022-10-16T05:57:31;24.20;;;20.30;;
71648;SDS011;59492;45.638;11.714;2022-10-16T05:59:56;22.80;;;20.30;;
71648;SDS011;59492;45.638;11.714;2022-10-16T06:02:22;23.90;;;21.30;;
71648;SDS011;59492;45.638;11.714;2022-10-16T06:04:47;23.70;;;19.80;;
71648;SDS011;59492;45.638;11.714;2022-10-16T06:07:13;23.90;;;20.90;;
71648;SDS011;59492;45.638;11.714;2022-10-16T06:09:38;23.60;;;21.00;;
71648;SDS011;59492;45.638;11.714;2022-10-16T06:12:04;25.10;;;21.50;;
71648;SDS011;59492;45.638;11.714;2022-10-16T06:14:29;26.10;;;20.90;;
71648;SDS011;59492;45.638;11.714;2022-10-16T06:16:55;24.90;;;20.90;;
71648;SDS011;59492;45.638;11.714;2022-10-16T06:19:21;22.80;;;20.30;;
71648;SDS011;59492;45.638;11.714;2022-10-16T06:21:47;22.80;;;20.30;;
71648;SDS011;59492;45.638;11.714;2022-10-16T06:24:13;23.30;;;20.20;;
71648;SDS011;59492;45.638;11.714;2022-10-16T06:26:39;24.90;;;22.00;;
71648;SDS011;59492;45.638;11.714;2022-10-16T06:29:04;23.10;;;20.10;;
71648;SDS011;59492;45.638;11.714;2022-10-16T06:31:30;24.00;;;21.00;;
71648;SDS011;59492;45.638;11.714;2022-10-16T06:33:58;24.70;;;21.40;;
71648;SDS011;59492;45.638;11.714;2022-10-16T06:36:24;26.60;;;21.30;;
71648;SDS011;59492;45.638;11.714;2022-10-16T06:38:51;21.60;;;18.60;;
71648;SDS011;59492;45.638;11.714;2022-10-16T06:41:19;21.90;;;19.30;;
71648;SDS011;59492;45.638;11.714;2022-10-16T06:43:46;20.30;;;17.80;;
71648;SDS011;59492;45.638;11.714;2022-10-16T06:46:13;23.30;;;19.90;;
71648;SDS011;59492;45.638;11.714;2022-10-16T06:48:40;23.40;;;20.10;;
71648;SDS011;59492;45.638;11.714;2022-10-16T06:51:08;22.60;;;19.80;;
71648;SDS011;59492;45.638;11.714;2022-10-16T06:53:36;24.60;;;20.40;;
71648;SDS011;59492;45.638;11.714;2022-10-16T06:56:07;24.10;;;20.90;;
71648;SDS011;59492;45.638;11.714;2022-10-16T06:58:33;21.90;;;19.50;;
71648;SDS011;59492;45.638;11.714;2022-10-16T07:00:59;22.90;;;20.50;;
71648;SDS011;59492;45.638;11.714;2022-10-16T07:03:24;24.20;;;20.40;;
71648;SDS011;59492;45.638;11.714;2022-10-16T07:05:50;23.50;;;21.00;;
71648;SDS011;59492;45.638;11.714;2022-10-16T07:08:16;24.00;;;20.90;;
71648;SDS011;59492;45.638;11.714;2022-10-16T07:10:41;25.60;;;22.10;;
71648;SDS011;59492;45.638;11.714;2022-10-16T07:13:07;28.40;;;23.40;;
71648;SDS011;59492;45.638;11.714;2022-10-16T07:15:33;26.30;;;22.40;;
71648;SDS011;59492;45.638;11.714;2022-10-16T07:17:59;27.50;;;22.10;;
71648;SDS011;59492;45.638;11.714;2022-10-16T07:20:24;28.10;;;22.70;;
71648;SDS011;59492;45.638;11.714;2022-10-16T07:22:50;33.20;;;22.10;;
71648;SDS011;59492;45.638;11.714;2022-10-16T07:25:16;23.90;;;20.50;;
71648;SDS011;59492;45.638;11.714;2022-10-16T07:27:42;27.20;;;22.40;;
71648;SDS011;59492;45.638;11.714;2022-10-16T07:30:08;25.60;;;21.10;;
71648;SDS011;59492;45.638;11.714;2022-10-16T07:32:33;27.00;;;20.50;;
71648;SDS011;59492;45.638;11.714;2022-10-16T07:34:59;22.80;;;20.30;;
71648;SDS011;59492;45.638;11.714;2022-10-16T07:37:24;24.00;;;18.90;;
71648;SDS011;59492;45.638;11.714;2022-10-16T07:39:50;21.40;;;18.00;;
71648;SDS011;59492;45.638;11.714;2022-10-16T07:42:16;24.10;;;18.80;;
71648;SDS011;59492;45.638;11.714;2022-10-16T07:44:42;22.40;;;18.20;;
71648;SDS011;59492;45.638;11.714;2022-10-16T07:47:09;23.70;;;20.20;;
71648;SDS011;59492;45.638;11.714;2022-10-16T07:49:34;24.00;;;19.80;;
71648;SDS011;59492;45.638;11.714;2022-10-16T07:52:01;23.70;;;18.80;;
71648;SDS011;59492;45.638;11.714;2022-10-16T07:54:26;22.80;;;19.80;;
71648;SDS011;59492;45.638;11.714;2022-10-16T07:56:52;24.20;;;19.50;;
71648;SDS011;59492;45.638;11.714;2022-10-16T07:59:18;23.90;;;19.80;;
71648;SDS011;59492;45.638;11.714;2022-10-16T08:01:44;23.30;;;19.90;;
71648;SDS011;59492;45.638;11.714;2022-10-16T08:04:10;23.60;;;18.60;;
71648;SDS011;59492;45.638;11.714;2022-10-16T08:06:37;21.10;;;18.70;;
71648;SDS011;59492;45.638;11.714;2022-10-16T08:09:05;20.80;;;18.60;;
71648;SDS011;59492;45.638;11.714;2022-10-16T08:11:32;23.80;;;18.60;;
71648;SDS011;59492;45.638;11.714;2022-10-16T08:14:00;21.60;;;18.80;;
71648;SDS011;59492;45.638;11.714;2022-10-16T08:16:28;22.30;;;18.80;;
71648;SDS011;59492;45.638;11.714;2022-10-16T08:18:55;22.50;;;18.90;;
71648;SDS011;59492;45.638;11.714;2022-10-16T08:21:22;20.30;;;18.10;;
71648;SDS011;59492;45.638;11.714;2022-10-16T08:23:50;22.60;;;18.70;;
71648;SDS011;59492;45.638;11.714;2022-10-16T08:26:18;23.90;;;18.60;;
71648;SDS011;59492;45.638;11.714;2022-10-16T08:28:44;22.00;;;18.70;;
71648;SDS011;59492;45.638;11.714;2022-10-16T08:31:14;21.80;;;18.60;;
71648;SDS011;59492;45.638;11.714;2022-10-16T08:33:41;21.70;;;18.40;;
71648;SDS011;59492;45.638;11.714;2022-10-16T08:36:09;19.60;;;17.60;;
71648;SDS011;59492;45.638;11.714;2022-10-16T08:38:35;22.50;;;18.60;;
71648;SDS011;59492;45.638;11.714;2022-10-16T08:47:10;22.80;;;19.30;;
71648;SDS011;59492;45.638;11.714;2022-10-16T08:49:43;24.20;;;19.10;;
71648;SDS011;59492;45.638;11.714;2022-10-16T08:52:18;22.60;;;20.30;;
71648;SDS011;59492;45.638;11.714;2022-10-16T08:54:45;21.80;;;18.70;;
71648;SDS011;59492;45.638;11.714;2022-10-16T08:57:14;22.10;;;19.70;;
71648;SDS011;59492;45.638;11.714;2022-10-16T08:59:42;25.40;;;20.40;;
71648;SDS011;59492;45.638;11.714;2022-10-16T09:02:52;24.70;;;20.20;;
71648;SDS011;59492;45.638;11.714;2022-10-16T09:15:39;24.20;;;19.80;;
71648;SDS011;59492;45.638;11.714;2022-10-16T09:18:23;21.80;;;19.10;;
71648;SDS011;59492;45.638;11.714;2022-10-16T09:24:38;25.60;;;20.90;;
71648;SDS011;59492;45.638;11.714;2022-10-16T09:26:45;23.80;;;19.30;;
71648;SDS011;59492;45.638;11.714;2022-10-16T09:29:12;25.90;;;20.10;;
71648;SDS011;59492;45.638;11.714;2022-10-16T09:31:41;33.30;;;22.20;;
71648;SDS011;59492;45.638;11.714;2022-10-16T09:34:25;27.20;;;20.80;;
71648;SDS011;59492;45.638;11.714;2022-10-16T09:36:52;29.10;;;23.40;;
71648;SDS011;59492;45.638;11.714;2022-10-16T09:39:17;31.40;;;21.70;;
71648;SDS011;59492;45.638;11.714;2022-10-16T09:41:43;30.60;;;22.50;;
71648;SDS011;59492;45.638;11.714;2022-10-16T09:44:29;26.20;;;23.40;;
71648;SDS011;59492;45.638;11.714;2022-10-16T09:49:28;29.70;;;22.50;;
71648;SDS011;59492;45.638;11.714;2022-10-16T09:52:11;31.30;;;23.10;;
71648;SDS011;59492;45.638;11.714;2022-10-16T09:54:48;27.50;;;23.30;;
71648;SDS011;59492;45.638;11.714;2022-10-16T09:57:15;28.30;;;23.70;;
71648;SDS011;59492;45.638;11.714;2022-10-16T09:59:47;30.00;;;24.20;;
71648;SDS011;59492;45.638;11.714;2022-10-16T10:02:15;29.60;;;24.30;;
71648;SDS011;59492;45.638;11.714;2022-10-16T10:04:48;35.30;;;25.20;;
71648;SDS011;59492;45.638;11.714;2022-10-16T10:07:24;35.80;;;26.40;;
71648;SDS011;59492;45.638;11.714;2022-10-16T10:09:52;32.10;;;25.90;;
71648;SDS011;59492;45.638;11.714;2022-10-16T10:14:58;31.30;;;25.80;;
71648;SDS011;59492;45.638;11.714;2022-10-16T10:17:30;35.60;;;26.20;;
71648;SDS011;59492;45.638;11.714;2022-10-16T10:20:00;31.40;;;26.50;;
71648;SDS011;59492;45.638;11.714;2022-10-16T10:22:43;32.10;;;26.10;;
71648;SDS011;59492;45.638;11.714;2022-10-16T10:30:20;29.50;;;25.80;;
71648;SDS011;59492;45.638;11.714;2022-10-16T10:32:52;33.90;;;25.70;;
71648;SDS011;59492;45.638;11.714;2022-10-16T10:35:22;36.00;;;26.40;;
71648;SDS011;59492;45.638;11.714;2022-10-16T10:37:56;36.90;;;27.50;;
71648;SDS011;59492;45.638;11.714;2022-10-16T10:40:39;35.50;;;27.80;;
71648;SDS011;59492;45.638;11.714;2022-10-16T10:43:37;32.60;;;27.00;;
71648;SDS011;59492;45.638;11.714;2022-10-16T10:46:35;30.70;;;26.20;;
71648;SDS011;59492;45.638;11.714;2022-10-16T10:51:52;38.70;;;28.10;;
71648;SDS011;59492;45.638;11.714;2022-10-16T10:54:26;35.30;;;28.60;;
71648;SDS011;59492;45.638;11.714;2022-10-16T10:56:57;40.50;;;28.00;;
71648;SDS011;59492;45.638;11.714;2022-10-16T10:59:38;38.60;;;27.30;;
71648;SDS011;59492;45.638;11.714;2022-10-16T11:02:21;30.00;;;24.30;;
71648;SDS011;59492;45.638;11.714;2022-10-16T11:10:24;33.30;;;27.00;;
71648;SDS011;59492;45.638;11.714;2022-10-16T11:12:55;34.30;;;26.10;;
71648;SDS011;59492;45.638;11.714;2022-10-16T11:15:30;38.40;;;27.40;;
71648;SDS011;59492;45.638;11.714;2022-10-16T11:18:08;32.00;;;26.50;;
71648;SDS011;59492;45.638;11.714;2022-10-16T11:21:00;32.10;;;26.20;;
71648;SDS011;59492;45.638;11.714;2022-10-16T11:26:14;31.70;;;24.50;;
71648;SDS011;59492;45.638;11.714;2022-10-16T11:28:49;31.80;;;25.40;;
71648;SDS011;59492;45.638;11.714;2022-10-16T11:31:24;28.70;;;23.80;;
71648;SDS011;59492;45.638;11.714;2022-10-16T11:37:27;30.40;;;24.60;;
71648;SDS011;59492;45.638;11.714;2022-10-16T11:39:50;33.50;;;25.40;;
71648;SDS011;59492;45.638;11.714;2022-10-16T11:42:57;32.00;;;25.00;;
71648;SDS011;59492;45.638;11.714;2022-10-16T11:51:00;28.70;;;24.80;;
71648;SDS011;59492;45.638;11.714;2022-10-16T11:56:39;30.30;;;24.40;;
71648;SDS011;59492;45.638;11.714;2022-10-16T11:59:11;32.20;;;25.10;;
71648;SDS011;59492;45.638;11.714;2022-10-16T12:01:49;31.90;;;24.90;;
71648;SDS011;59492;45.638;11.714;2022-10-16T12:04:25;26.90;;;23.20;;
71648;SDS011;59492;45.638;11.714;2022-10-16T12:07:04;30.50;;;24.90;;
71648;SDS011;59492;45.638;11.714;2022-10-16T12:09:36;30.20;;;24.80;;
71648;SDS011;59492;45.638;11.714;2022-10-16T12:12:25;31.30;;;26.40;;
71648;SDS011;59492;45.638;11.714;2022-10-16T12:15:24;32.70;;;24.40;;
71648;SDS011;59492;45.638;11.714;2022-10-16T12:17:55;30.30;;;23.30;;
71648;SDS011;59492;45.638;11.714;2022-10-16T12:20:23;28.60;;;23.90;;
71648;SDS011;59492;45.638;11.714;2022-10-16T12:23:00;28.30;;;23.50;;
71648;SDS011;59492;45.638;11.714;2022-10-16T12:27:59;31.40;;;24.60;;
71648;SDS011;59492;45.638;11.714;2022-10-16T12:30:26;27.10;;;22.40;;
71648;SDS011;59492;45.638;11.714;2022-10-16T12:33:04;30.70;;;23.70;;
71648;SDS011;59492;45.638;11.714;2022-10-16T12:35:45;28.40;;;24.00;;
71648;SDS011;59492;45.638;11.714;2022-10-16T12:40:42;31.30;;;23.50;;
71648;SDS011;59492;45.638;11.714;2022-10-16T12:43:23;26.30;;;22.90;;
71648;SDS011;59492;45.638;11.714;2022-10-16T12:46:00;24.80;;;22.10;;
71648;SDS011;59492;45.638;11.714;2022-10-16T12:48:28;26.30;;;22.20;;
71648;SDS011;59492;45.638;11.714;2022-10-16T12:50:55;30.60;;;23.00;;
71648;SDS011;59492;45.638;11.714;2022-10-16T12:53:22;26.20;;;22.60;;
71648;SDS011;59492;45.638;11.714;2022-10-16T13:00:54;24.50;;;21.80;;
71648;SDS011;59492;45.638;11.714;2022-10-16T13:03:37;26.40;;;22.00;;
71648;SDS011;59492;45.638;11.714;2022-10-16T13:20:33;27.40;;;20.50;;
71648;SDS011;59492;45.638;11.714;2022-10-16T13:25:48;26.00;;;20.30;;
71648;SDS011;59492;45.638;11.714;2022-10-16T13:28:30;25.20;;;19.30;;
71648;SDS011;59492;45.638;11.714;2022-10-16T13:30:58;25.10;;;20.10;;
71648;SDS011;59492;45.638;11.714;2022-10-16T13:36:00;24.90;;;19.90;;
71648;SDS011;59492;45.638;11.714;2022-10-16T13:38:30;22.60;;;20.20;;
71648;SDS011;59492;45.638;11.714;2022-10-16T13:41:05;23.30;;;20.00;;
71648;SDS011;59492;45.638;11.714;2022-10-16T13:43:39;24.00;;;19.80;;
71648;SDS011;59492;45.638;11.714;2022-10-16T13:46:18;24.30;;;19.80;;
71648;SDS011;59492;45.638;11.714;2022-10-16T13:48:55;22.10;;;18.70;;
71648;SDS011;59492;45.638;11.714;2022-10-16T13:51:22;20.10;;;18.00;;
71648;SDS011;59492;45.638;11.714;2022-10-16T13:53:48;22.20;;;19.10;;
71648;SDS011;59492;45.638;11.714;2022-10-16T13:56:15;24.60;;;20.20;;
71648;SDS011;59492;45.638;11.714;2022-10-16T13:58:42;22.60;;;19.40;;
71648;SDS011;59492;45.638;11.714;2022-10-16T14:01:15;25.50;;;20.00;;
71648;SDS011;59492;45.638;11.714;2022-10-16T14:03:43;24.40;;;19.90;;
71648;SDS011;59492;45.638;11.714;2022-10-16T14:06:14;25.10;;;19.70;;
71648;SDS011;59492;45.638;11.714;2022-10-16T14:09:05;24.90;;;19.40;;
71648;SDS011;59492;45.638;11.714;2022-10-16T14:11:32;24.60;;;20.30;;
71648;SDS011;59492;45.638;11.714;2022-10-16T14:14:02;24.30;;;20.10;;
71648;SDS011;59492;45.638;11.714;2022-10-16T14:16:29;25.10;;;19.90;;
71648;SDS011;59492;45.638;11.714;2022-10-16T14:19:02;25.20;;;20.10;;
71648;SDS011;59492;45.638;11.714;2022-10-16T14:21:32;25.80;;;20.60;;
71648;SDS011;59492;45.638;11.714;2022-10-16T14:23:58;24.00;;;20.60;;
71648;SDS011;59492;45.638;11.714;2022-10-16T14:26:25;32.10;;;21.00;;
71648;SDS011;59492;45.638;11.714;2022-10-16T14:29:15;26.70;;;20.30;;
71648;SDS011;59492;45.638;11.714;2022-10-16T14:31:53;24.10;;;21.30;;
71648;SDS011;59492;45.638;11.714;2022-10-16T14:34:23;25.60;;;21.00;;
71648;SDS011;59492;45.638;11.714;2022-10-16T14:36:54;29.00;;;22.10;;
71648;SDS011;59492;45.638;11.714;2022-10-16T14:39:21;26.40;;;21.00;;
71648;SDS011;59492;45.638;11.714;2022-10-16T14:41:48;23.50;;;20.60;;
71648;SDS011;59492;45.638;11.714;2022-10-16T14:44:16;26.90;;;21.60;;
71648;SDS011;59492;45.638;11.714;2022-10-16T14:46:43;27.30;;;21.70;;
71648;SDS011;59492;45.638;11.714;2022-10-16T14:51:36;25.40;;;22.30;;
71648;SDS011;59492;45.638;11.714;2022-10-16T14:54:03;26.90;;;21.70;;
71648;SDS011;59492;45.638;11.714;2022-10-16T14:56:30;30.80;;;22.40;;
71648;SDS011;59492;45.638;11.714;2022-10-16T14:59:10;26.90;;;21.90;;
71648;SDS011;59492;45.638;11.714;2022-10-16T15:04:08;27.30;;;20.80;;
71648;SDS011;59492;45.638;11.714;2022-10-16T15:06:36;25.60;;;22.00;;
71648;SDS011;59492;45.638;11.714;2022-10-16T15:09:02;25.30;;;21.50;;
71648;SDS011;59492;45.638;11.714;2022-10-16T15:11:28;26.90;;;22.40;;
71648;SDS011;59492;45.638;11.714;2022-10-16T15:13:56;28.40;;;21.80;;
71648;SDS011;59492;45.638;11.714;2022-10-16T15:16:21;25.60;;;22.00;;
71648;SDS011;59492;45.638;11.714;2022-10-16T15:18:47;28.60;;;22.60;;
71648;SDS011;59492;45.638;11.714;2022-10-16T15:21:21;26.50;;;20.60;;
71648;SDS011;59492;45.638;11.714;2022-10-16T15:23:51;26.00;;;20.70;;
71648;SDS011;59492;45.638;11.714;2022-10-16T15:26:17;24.90;;;21.60;;
71648;SDS011;59492;45.638;11.714;2022-10-16T15:28:42;26.60;;;22.20;;
71648;SDS011;59492;45.638;11.714;2022-10-16T15:31:08;25.70;;;22.00;;
71648;SDS011;59492;45.638;11.714;2022-10-16T15:33:33;25.10;;;22.20;;
71648;SDS011;59492;45.638;11.714;2022-10-16T15:36:00;27.00;;;22.00;;
71648;SDS011;59492;45.638;11.714;2022-10-16T15:38:28;25.70;;;21.50;;
71648;SDS011;59492;45.638;11.714;2022-10-16T15:40:54;26.80;;;23.50;;
71648;SDS011;59492;45.638;11.714;2022-10-16T15:43:20;26.10;;;22.20;;
71648;SDS011;59492;45.638;11.714;2022-10-16T15:45:52;26.50;;;22.20;;
71648;SDS011;59492;45.638;11.714;2022-10-16T15:48:25;26.70;;;23.10;;
71648;SDS011;59492;45.638;11.714;2022-10-16T15:50:51;26.70;;;22.00;;
71648;SDS011;59492;45.638;11.714;2022-10-16T15:53:16;25.60;;;22.50;;
71648;SDS011;59492;45.638;11.714;2022-10-16T15:55:42;25.60;;;22.80;;
71648;SDS011;59492;45.638;11.714;2022-10-16T15:58:07;27.10;;;22.00;;
71648;SDS011;59492;45.638;11.714;2022-10-16T16:00:33;28.30;;;22.10;;
71648;SDS011;59492;45.638;11.714;2022-10-16T16:02:58;27.70;;;21.70;;